Time;durP1;ratioP1;P1;durP2;ratioP2;P2;SDS_P1;SDS_P2;PMS_P1;PMS_P2;Temp;Humidity;BMP_temperature;BMP_pressure;BME280_temperature;BME280_humidity;BME280_pressure;Samples;Min_cycle;Max_cycle;Signal;HPM_P1;HPM_P2
2022/05/02 00:00:20;;;;;;;5.93;4.55;;;13.60;65.90;;;;;;4918184;29;20024;-71
2022/05/02 00:02:46;;;;;;;6.35;4.35;;;13.60;65.90;;;;;;4934604;29;20042;-72
2022/05/02 00:05:12;;;;;;;6.95;4.68;;;13.60;66.00;;;;;;4934824;29;20582;-72
2022/05/02 00:07:38;;;;;;;6.25;4.60;;;13.60;66.10;;;;;;4917666;29;20603;-71
2022/05/02 00:10:06;;;;;;;8.10;4.93;;;13.60;66.20;;;;;;4931573;29;20075;-72
2022/05/02 00:12:32;;;;;;;6.25;4.47;;;13.60;66.20;;;;;;4933998;29;20047;-72
2022/05/02 00:14:57;;;;;;;7.40;5.03;;;13.50;66.20;;;;;;4935118;29;20027;-72
2022/05/02 00:20:07;;;;;;;8.50;4.17;;;13.60;66.70;;;;;;4935058;29;20115;-71
2022/05/02 00:22:33;;;;;;;6.60;3.78;;;13.60;66.20;;;;;;4883327;29;1250052;-71
2022/05/02 00:24:58;;;;;;;5.20;3.65;;;13.50;66.10;;;;;;4925933;29;20027;-71
2022/05/02 00:27:24;;;;;;;5.72;4.20;;;13.60;66.00;;;;;;4921059;29;20051;-71
2022/05/02 00:29:49;;;;;;;7.35;5.05;;;13.50;65.90;;;;;;4923437;29;20028;-71
2022/05/02 00:32:15;;;;;;;11.05;4.20;;;13.50;65.90;;;;;;4934168;29;20032;-71
2022/05/02 00:34:40;;;;;;;7.88;4.38;;;13.50;65.90;;;;;;4935592;29;20027;-71
2022/05/02 00:37:06;;;;;;;9.30;4.80;;;13.50;65.90;;;;;;4934942;29;20024;-71
2022/05/02 00:39:32;;;;;;;6.57;4.10;;;13.50;65.90;;;;;;4935471;29;20103;-72
2022/05/02 00:41:57;;;;;;;6.82;3.72;;;13.50;66.00;;;;;;4932989;29;20042;-72
2022/05/02 00:44:23;;;;;;;6.25;3.50;;;13.50;66.10;;;;;;4934597;29;20472;-72
2022/05/02 00:46:49;;;;;;;5.65;3.58;;;13.50;66.00;;;;;;4934631;29;20054;-72
2022/05/02 00:49:15;;;;;;;5.60;4.00;;;13.50;66.00;;;;;;4934558;29;20039;-71
2022/05/02 00:51:40;;;;;;;4.55;3.58;;;13.50;66.00;;;;;;4931536;29;20020;-73
2022/05/02 00:54:06;;;;;;;6.47;3.53;;;13.40;66.00;;;;;;4930999;29;20415;-73
2022/05/02 00:56:32;;;;;;;5.60;3.90;;;13.50;66.00;;;;;;4932231;29;20574;-73
2022/05/02 00:58:57;;;;;;;7.28;4.38;;;13.50;66.00;;;;;;4910176;29;20499;-73
2022/05/02 01:01:23;;;;;;;7.53;3.85;;;13.40;65.90;;;;;;4922275;29;20484;-73
2022/05/02 01:03:49;;;;;;;6.70;3.90;;;13.50;65.90;;;;;;4934864;29;20039;-73
2022/05/02 01:08:59;;;;;;;7.75;3.88;;;13.50;65.80;;;;;;4935273;29;20043;-73
2022/05/02 01:11:25;;;;;;;5.85;3.92;;;13.50;65.70;;;;;;4931625;29;20036;-71
2022/05/02 01:13:51;;;;;;;4.40;3.10;;;13.40;65.60;;;;;;4929413;29;20399;-72
2022/05/02 01:16:21;;;;;;;6.13;3.67;;;13.40;65.70;;;;;;4921476;29;20083;-71
2022/05/02 01:18:51;;;;;;;6.65;3.65;;;13.50;65.70;;;;;;4933402;29;20035;-73
2022/05/02 01:21:19;;;;;;;6.28;3.90;;;13.40;65.80;;;;;;4925200;29;20036;-72
2022/05/02 01:23:47;;;;;;;5.78;3.45;;;13.40;65.80;;;;;;4922216;29;20135;-72
2022/05/02 01:26:13;;;;;;;9.35;3.70;;;13.40;65.50;;;;;;4916462;29;20250;-72
2022/05/02 01:28:43;;;;;;;6.43;3.97;;;13.30;65.40;;;;;;4933409;29;20035;-72
2022/05/02 01:31:08;;;;;;;6.88;3.83;;;13.30;65.40;;;;;;4933998;29;20027;-72
2022/05/02 01:33:35;;;;;;;8.63;3.67;;;13.30;65.40;;;;;;4931470;29;20364;-72
2022/05/02 01:36:01;;;;;;;6.50;3.38;;;13.30;65.50;;;;;;4915761;29;20036;-72
2022/05/02 01:38:27;;;;;;;6.53;3.53;;;13.30;65.50;;;;;;4922446;29;20084;-72
2022/05/02 01:40:52;;;;;;;8.13;3.17;;;13.30;65.50;;;;;;4934806;29;20131;-72
2022/05/02 01:43:18;;;;;;;7.53;3.92;;;13.30;65.50;;;;;;4930294;29;20019;-72
2022/05/02 01:45:43;;;;;;;6.68;3.72;;;13.30;65.60;;;;;;4934728;29;20435;-72
2022/05/02 01:48:09;;;;;;;5.30;3.25;;;13.30;65.70;;;;;;4933436;29;20078;-72
2022/05/02 01:50:34;;;;;;;9.48;4.13;;;13.30;65.90;;;;;;4933939;29;20046;-72
2022/05/02 01:53:00;;;;;;;4.88;3.55;;;13.30;66.10;;;;;;4934075;29;20032;-72
2022/05/02 01:55:25;;;;;;;7.65;4.55;;;13.20;66.20;;;;;;4929688;29;20020;-72
2022/05/02 01:57:51;;;;;;;6.35;4.30;;;13.20;66.50;;;;;;4933398;29;20059;-72
2022/05/02 02:00:16;;;;;;;7.63;4.93;;;13.20;66.60;;;;;;4932873;29;20537;-72
2022/05/02 02:02:42;;;;;;;6.88;4.03;;;13.20;66.80;;;;;;4934147;29;20032;-72
2022/05/02 02:07:52;;;;;;;5.97;3.78;;;13.00;67.00;;;;;;4934242;29;20567;-72
2022/05/02 02:10:17;;;;;;;6.03;4.13;;;13.00;67.10;;;;;;4933146;29;20031;-72
2022/05/02 02:12:43;;;;;;;7.82;4.40;;;13.00;67.30;;;;;;4917432;29;20487;-72
2022/05/02 02:15:09;;;;;;;6.30;3.83;;;12.90;67.40;;;;;;4932227;29;20151;-72
2022/05/02 02:17:35;;;;;;;6.75;4.30;;;12.90;67.70;;;;;;4934142;29;20047;-73
2022/05/02 02:20:00;;;;;;;5.40;4.32;;;12.80;67.70;;;;;;4933055;29;20020;-74
2022/05/02 02:22:26;;;;;;;5.95;4.25;;;12.80;68.00;;;;;;4933883;29;20183;-73
2022/05/02 02:24:52;;;;;;;6.68;4.03;;;12.70;68.00;;;;;;4933495;29;20030;-73
2022/05/02 02:27:17;;;;;;;7.10;4.00;;;12.70;68.30;;;;;;4934316;29;20032;-73
2022/05/02 02:29:43;;;;;;;8.55;4.13;;;12.70;68.30;;;;;;4929802;29;20081;-73
2022/05/02 02:32:08;;;;;;;7.75;4.40;;;12.60;68.50;;;;;;4932954;29;20040;-72
2022/05/02 02:34:34;;;;;;;7.10;4.05;;;12.50;68.60;;;;;;4933157;29;20028;-73
2022/05/02 02:37:00;;;;;;;6.68;4.60;;;12.50;68.80;;;;;;4934016;29;20027;-72
2022/05/02 02:39:26;;;;;;;6.50;4.70;;;12.50;68.90;;;;;;4933031;29;20456;-73
2022/05/02 02:41:51;;;;;;;6.18;4.30;;;12.40;69.10;;;;;;4934194;29;20111;-73
2022/05/02 02:44:17;;;;;;;7.88;4.43;;;12.40;69.30;;;;;;4908015;29;20024;-73
2022/05/02 02:46:42;;;;;;;9.15;4.72;;;12.40;69.30;;;;;;4926732;29;20032;-73
2022/05/02 02:49:08;;;;;;;8.27;4.20;;;12.40;69.30;;;;;;4932237;29;20030;-73
2022/05/02 02:51:33;;;;;;;7.75;4.07;;;12.30;69.40;;;;;;4934056;29;20020;-73
2022/05/02 02:53:58;;;;;;;9.48;4.80;;;12.40;69.50;;;;;;4932708;29;20100;-73
2022/05/02 02:56:24;;;;;;;7.93;4.50;;;12.40;69.60;;;;;;4934249;29;20027;-73
2022/05/02 02:58:49;;;;;;;6.05;4.10;;;12.40;69.60;;;;;;4933219;29;20631;-74
2022/05/02 03:01:15;;;;;;;8.30;4.10;;;12.40;69.60;;;;;;4934184;29;20031;-73
2022/05/02 03:03:40;;;;;;;7.68;4.07;;;12.40;69.70;;;;;;4932623;29;20020;-73
2022/05/02 03:06:06;;;;;;;7.15;4.15;;;12.40;69.80;;;;;;4933892;29;20035;-73
2022/05/02 03:08:34;;;;;;;7.00;4.18;;;12.40;69.90;;;;;;4933206;29;20036;-73
2022/05/02 03:11:00;;;;;;;5.30;3.85;;;12.40;69.80;;;;;;4918611;29;20078;-72
2022/05/02 03:13:26;;;;;;;8.15;4.80;;;12.40;69.70;;;;;;4930512;29;20034;-72
2022/05/02 03:15:51;;;;;;;8.57;4.43;;;12.40;69.70;;;;;;4904526;29;20563;-73
2022/05/02 03:18:17;;;;;;;6.65;3.85;;;12.30;69.70;;;;;;4928502;29;20043;-73
2022/05/02 03:20:42;;;;;;;6.55;4.38;;;12.30;69.70;;;;;;4916392;29;20024;-72
2022/05/02 03:23:08;;;;;;;8.55;4.22;;;12.30;69.70;;;;;;4926586;29;20047;-73
2022/05/02 03:25:33;;;;;;;8.32;4.05;;;12.30;69.70;;;;;;4936692;29;20031;-73
2022/05/02 03:27:59;;;;;;;8.68;4.85;;;12.30;69.80;;;;;;4935842;29;20038;-74
2022/05/02 03:30:24;;;;;;;6.93;4.22;;;12.30;69.70;;;;;;4919276;29;20455;-74
2022/05/02 03:32:50;;;;;;;7.32;4.50;;;12.20;69.70;;;;;;4936811;29;20032;-73
2022/05/02 03:35:15;;;;;;;7.50;4.32;;;12.20;69.70;;;;;;4934670;29;20388;-74
2022/05/02 03:37:40;;;;;;;8.43;4.60;;;12.20;69.70;;;;;;4935954;29;20039;-74
2022/05/02 03:40:08;;;;;;;7.50;4.53;;;12.20;69.80;;;;;;4919544;29;20103;-72
2022/05/02 03:42:33;;;;;;;8.02;4.88;;;12.20;69.70;;;;;;4917066;29;20603;-72
2022/05/02 03:44:59;;;;;;;6.22;4.22;;;12.20;69.80;;;;;;4931700;29;20107;-72
2022/05/02 03:47:24;;;;;;;8.50;4.22;;;12.10;70.30;;;;;;4936349;29;20495;-71
2022/05/02 03:49:50;;;;;;;7.47;4.68;;;12.10;70.00;;;;;;4935319;29;20030;-71
2022/05/02 03:52:15;;;;;;;9.52;4.65;;;12.10;70.10;;;;;;4933963;29;20031;-71
2022/05/02 03:54:41;;;;;;;8.45;4.40;;;12.10;70.20;;;;;;4927609;29;20396;-71
2022/05/02 03:57:06;;;;;;;8.52;5.20;;;12.10;70.30;;;;;;4920891;29;20028;-72
2022/05/02 03:59:32;;;;;;;6.80;4.50;;;12.10;70.50;;;;;;4935623;29;20482;-71
2022/05/02 04:01:58;;;;;;;8.27;4.90;;;12.10;70.70;;;;;;4918361;29;20032;-71
2022/05/02 04:04:23;;;;;;;8.77;4.93;;;12.20;70.90;;;;;;4935281;29;20376;-70
2022/05/02 04:06:49;;;;;;;7.15;4.55;;;12.20;71.00;;;;;;4935807;29;20379;-71
2022/05/02 04:09:14;;;;;;;12.60;6.05;;;12.20;71.10;;;;;;4927027;29;20036;-72
2022/05/02 04:11:41;;;;;;;7.43;4.68;;;12.20;71.20;;;;;;4920417;29;20432;-71
2022/05/02 04:14:06;;;;;;;9.07;4.80;;;12.10;71.20;;;;;;4935135;29;20054;-70
2022/05/02 04:16:32;;;;;;;6.38;4.70;;;12.10;71.20;;;;;;4936107;29;20032;-67
2022/05/02 04:18:57;;;;;;;7.82;4.70;;;12.10;71.30;;;;;;4933600;29;20039;-69
2022/05/02 04:21:23;;;;;;;7.43;5.35;;;12.10;71.40;;;;;;4918516;29;20024;-70
2022/05/02 04:23:49;;;;;;;8.45;4.85;;;12.10;71.40;;;;;;4933768;29;20492;-68
2022/05/02 04:26:14;;;;;;;8.27;5.03;;;12.00;71.50;;;;;;4935591;29;20063;-68
2022/05/02 04:28:40;;;;;;;8.82;5.55;;;11.90;71.60;;;;;;4930772;29;20044;-70
2022/05/02 04:31:05;;;;;;;9.32;5.03;;;12.00;71.60;;;;;;4917531;29;20470;-69
2022/05/02 04:33:31;;;;;;;9.95;5.20;;;11.90;71.50;;;;;;4930246;29;20388;-69
2022/05/02 04:35:56;;;;;;;10.68;5.15;;;11.90;71.50;;;;;;4935536;29;20585;-70
2022/05/02 04:38:22;;;;;;;9.07;5.25;;;11.80;71.60;;;;;;4934403;29;20423;-70
2022/05/02 04:40:47;;;;;;;9.70;5.28;;;11.80;71.80;;;;;;4918312;29;20038;-69
2022/05/02 04:43:14;;;;;;;5.80;4.30;;;11.90;71.70;;;;;;4934189;29;20039;-69
2022/05/02 04:45:39;;;;;;;10.20;5.15;;;11.80;71.80;;;;;;4935603;29;20042;-70
2022/05/02 04:48:05;;;;;;;7.10;5.03;;;11.80;71.80;;;;;;4934557;29;20399;-70
2022/05/02 04:50:31;;;;;;;10.18;5.75;;;11.80;71.80;;;;;;4933939;29;20374;-70
2022/05/02 04:52:56;;;;;;;8.93;5.32;;;11.90;71.90;;;;;;4927795;29;20031;-70
2022/05/02 04:55:22;;;;;;;8.73;5.72;;;11.90;71.80;;;;;;4917875;29;20043;-71
2022/05/02 04:57:47;;;;;;;8.15;5.22;;;11.90;71.80;;;;;;4921408;29;20484;-71
2022/05/02 05:00:16;;;;;;;9.88;5.82;;;11.90;71.80;;;;;;4932009;29;20032;-71
2022/05/02 05:02:42;;;;;;;8.88;6.13;;;11.90;71.80;;;;;;4935019;29;20024;-71
2022/05/02 05:05:07;;;;;;;8.18;5.93;;;11.90;72.00;;;;;;4933970;29;20035;-70
2022/05/02 05:07:36;;;;;;;10.27;5.65;;;11.90;71.80;;;;;;4935001;29;20040;-71
2022/05/02 05:10:01;;;;;;;9.90;5.88;;;12.00;71.90;;;;;;4933929;29;20032;-71
2022/05/02 05:12:39;;;;;;;9.00;5.55;;;12.00;71.80;;;;;;4932269;29;20575;-71
2022/05/02 05:18:16;;;;;;;9.68;5.50;;;12.00;72.40;;;;;;4933720;29;20036;-71
2022/05/02 05:21:08;;;;;;;5.85;4.45;;;12.00;71.80;;;;;;4931093;29;20022;-70
2022/05/02 05:23:46;;;;;;;11.63;6.35;;;12.10;71.80;;;;;;4918159;29;20062;-70
2022/05/02 05:26:42;;;;;;;9.60;5.07;;;12.10;71.70;;;;;;4934841;29;20035;-67
2022/05/02 05:29:26;;;;;;;;;;;12.10;71.80;;;;;;4929843;29;20055;-69
2022/05/02 05:32:01;;;;;;;12.13;6.13;;;12.10;72.00;;;;;;4928483;29;20297;-68
2022/05/02 05:34:39;;;;;;;9.38;5.75;;;12.10;71.50;;;;;;4921457;29;20123;-68
2022/05/02 05:37:40;;;;;;;7.45;6.07;;;12.10;71.50;;;;;;4923789;29;20035;-68
2022/05/02 05:40:23;;;;;;;12.13;5.55;;;12.10;71.50;;;;;;4919482;29;20043;-68
2022/05/02 05:43:16;;;;;;;9.23;5.43;;;12.20;71.60;;;;;;4924880;29;20027;-68
2022/05/02 05:46:15;;;;;;;9.07;5.57;;;12.30;71.40;;;;;;4911583;29;20028;-69
2022/05/02 05:49:08;;;;;;;11.63;5.60;;;12.40;71.50;;;;;;4931013;29;20134;-69
2022/05/02 05:51:52;;;;;;;11.23;5.05;;;12.40;71.10;;;;;;4931561;29;20034;-69
2022/05/02 05:54:38;;;;;;;6.60;4.72;;;12.50;71.00;;;;;;4924663;29;20036;-69
2022/05/02 05:57:32;;;;;;;9.88;4.43;;;12.60;70.40;;;;;;4915225;29;20088;-69
2022/05/02 06:00:14;;;;;;;11.55;4.82;;;12.70;70.20;;;;;;4927301;29;20035;-69
2022/05/02 06:03:05;;;;;;;7.93;4.78;;;12.80;69.80;;;;;;4921385;29;20035;-69
2022/05/02 06:05:35;;;;;;;7.60;4.45;;;12.90;69.80;;;;;;4932866;29;20036;-69
2022/05/02 06:08:03;;;;;;;11.02;5.43;;;13.00;69.30;;;;;;4932499;29;20107;-68
2022/05/02 06:10:30;;;;;;;11.85;5.88;;;13.10;68.80;;;;;;4931922;29;20028;-69
2022/05/02 06:12:59;;;;;;;12.90;5.15;;;13.10;68.80;;;;;;4916849;29;20031;-69
2022/05/02 06:18:30;;;;;;;6.40;4.60;;;13.30;68.90;;;;;;4931827;29;20042;-68
2022/05/02 06:21:03;;;;;;;6.68;4.22;;;13.40;68.50;;;;;;4923034;29;20028;-68
2022/05/02 06:23:36;;;;;;;8.02;4.47;;;13.40;67.70;;;;;;4932002;29;20059;-69
2022/05/02 06:26:03;;;;;;;8.38;4.53;;;13.50;67.40;;;;;;4932156;29;20070;-69
2022/05/02 06:28:42;;;;;;;9.50;4.28;;;13.60;67.30;;;;;;4931702;29;20051;-68
2022/05/02 06:31:31;;;;;;;7.65;5.07;;;13.60;66.90;;;;;;4922860;29;20119;-68
2022/05/02 06:33:59;;;;;;;6.95;4.25;;;13.70;66.40;;;;;;4920143;29;20043;-68
2022/05/02 06:37:00;;;;;;;5.53;3.78;;;13.80;66.30;;;;;;4931269;29;20383;-68
2022/05/02 06:39:35;;;;;;;7.60;4.20;;;13.90;66.00;;;;;;4914534;29;20035;-66
2022/05/02 06:42:24;;;;;;;6.60;3.90;;;14.00;65.40;;;;;;4930417;29;20034;-68
2022/05/02 06:45:09;;;;;;;7.80;3.80;;;14.10;65.20;;;;;;4934928;29;20095;-67
2022/05/02 06:48:16;;;;;;;7.45;4.22;;;14.20;65.40;;;;;;4924787;29;20171;-66
2022/05/02 06:50:47;;;;;;;6.75;3.72;;;14.30;64.60;;;;;;4936281;29;20035;-65
2022/05/02 06:53:51;;;;;;;8.38;3.95;;;14.40;64.40;;;;;;4934216;29;20028;-67
2022/05/02 06:56:38;;;;;;;5.90;3.50;;;14.40;64.10;;;;;;4929844;29;20043;-66
2022/05/02 06:59:49;;;;;;;6.30;4.10;;;14.50;63.50;;;;;;4933877;29;20030;-67
2022/05/02 07:02:32;;;;;;;9.43;4.90;;;14.60;63.30;;;;;;4873722;29;20045;-67
2022/05/02 07:05:05;;;;;;;7.47;5.10;;;14.60;63.00;;;;;;4927636;29;20134;-68
2022/05/02 07:07:57;;;;;;;6.05;4.05;;;14.70;63.30;;;;;;4935454;29;20095;-66
2022/05/02 07:10:26;;;;;;;8.98;4.60;;;14.80;62.80;;;;;;4933287;29;20032;-66
2022/05/02 07:13:29;;;;;;;7.50;4.13;;;14.80;63.00;;;;;;4936276;29;20039;-67
2022/05/02 07:16:16;;;;;;;6.38;4.32;;;14.90;62.90;;;;;;4930221;29;20097;-66
2022/05/02 07:18:58;;;;;;;6.05;4.05;;;15.00;62.60;;;;;;4932090;29;20069;-66
2022/05/02 07:21:38;;;;;;;7.00;3.97;;;15.10;62.40;;;;;;4931468;29;20031;-67
2022/05/02 07:24:47;;;;;;;6.60;4.00;;;15.10;62.40;;;;;;4933392;29;20056;-66
2022/05/02 07:27:50;;;;;;;6.95;4.18;;;15.20;62.20;;;;;;4935253;29;20040;-69
2022/05/02 07:30:20;;;;;;;6.65;4.00;;;15.20;62.60;;;;;;4933677;29;20032;-68
2022/05/02 07:32:46;;;;;;;8.63;4.82;;;15.20;61.90;;;;;;4933797;29;20051;-67
2022/05/02 07:35:14;;;;;;;11.73;4.45;;;15.20;61.90;;;;;;4926280;29;20031;-68
2022/05/02 07:37:43;;;;;;;6.68;4.30;;;15.30;62.00;;;;;;4934451;29;20028;-67
2022/05/02 07:40:12;;;;;;;6.88;4.07;;;15.30;61.70;;;;;;4928862;29;20451;-67
2022/05/02 07:42:38;;;;;;;6.13;3.90;;;15.40;62.00;;;;;;4934668;29;20031;-68
2022/05/02 07:45:07;;;;;;;7.35;3.90;;;15.40;62.20;;;;;;4932494;29;20058;-68
2022/05/02 07:47:35;;;;;;;10.13;4.38;;;15.50;62.20;;;;;;4928329;29;20078;-68
2022/05/02 07:50:05;;;;;;;4.60;3.72;;;15.40;61.90;;;;;;4932872;29;20043;-66
2022/05/02 07:52:35;;;;;;;9.25;4.18;;;15.40;62.10;;;;;;4934971;29;20115;-68
2022/05/02 07:55:03;;;;;;;5.90;3.78;;;15.50;62.30;;;;;;4927988;29;20391;-68
2022/05/02 07:57:32;;;;;;;7.03;4.25;;;15.60;62.20;;;;;;4935147;29;20039;-68
2022/05/02 08:00:00;;;;;;;5.38;3.65;;;15.60;62.30;;;;;;4930838;29;20040;-68
2022/05/02 08:02:26;;;;;;;5.20;3.65;;;15.60;62.40;;;;;;4932809;29;20039;-67
2022/05/02 08:04:53;;;;;;;8.35;4.00;;;15.70;62.80;;;;;;4931392;29;20115;-68
2022/05/02 08:07:28;;;;;;;6.47;3.22;;;15.70;62.00;;;;;;4933623;29;20487;-68
2022/05/02 08:10:15;;;;;;;6.90;3.95;;;15.70;62.00;;;;;;4932326;29;20432;-68
2022/05/02 08:13:01;;;;;;;5.90;3.30;;;15.80;62.10;;;;;;4918890;29;20020;-68
2022/05/02 08:15:35;;;;;;;5.85;3.78;;;15.90;61.80;;;;;;4925928;29;20428;-68
2022/05/02 08:18:17;;;;;;;7.85;3.53;;;15.90;61.60;;;;;;4923267;29;20027;-68
2022/05/02 08:20:59;;;;;;;6.35;3.83;;;16.00;61.70;;;;;;4927808;29;20046;-68
2022/05/02 08:29:48;;;;;;;6.72;4.00;;;16.10;61.20;;;;;;4926369;29;20401;-68
2022/05/02 08:32:40;;;;;;;7.05;4.35;;;16.10;61.10;;;;;;4916930;29;20507;-67
2022/05/02 08:35:37;;;;;;;7.15;4.00;;;16.20;60.90;;;;;;4930968;29;20114;-67
2022/05/02 08:38:17;;;;;;;5.25;3.40;;;16.20;61.00;;;;;;4941744;29;20482;-68
2022/05/02 08:41:13;;;;;;;8.18;3.72;;;16.30;61.00;;;;;;4934767;29;20043;-68
2022/05/02 08:44:08;;;;;;;5.32;3.70;;;16.40;61.10;;;;;;4921258;29;20546;-67
2022/05/02 08:46:53;;;;;;;6.10;3.28;;;16.40;60.70;;;;;;4916453;29;20040;-66
2022/05/02 08:49:47;;;;;;;8.75;3.70;;;16.50;60.80;;;;;;4924606;29;20480;-67
2022/05/02 08:52:52;;;;;;;6.05;3.60;;;16.60;60.80;;;;;;4927904;29;20028;-67
2022/05/02 08:55:48;;;;;;;6.97;3.78;;;16.70;60.00;;;;;;4933459;29;20566;-67
2022/05/02 08:58:42;;;;;;;6.35;3.67;;;16.70;60.20;;;;;;4932017;29;20487;-67
2022/05/02 09:01:26;;;;;;;6.20;3.17;;;16.70;60.00;;;;;;4933553;29;20071;-66
2022/05/02 09:04:23;;;;;;;6.75;3.38;;;16.70;60.10;;;;;;4933889;29;20494;-65
2022/05/02 09:07:20;;;;;;;4.85;3.47;;;16.80;60.10;;;;;;4915980;29;20483;-66
2022/05/02 09:10:08;;;;;;;7.03;3.88;;;16.90;60.20;;;;;;4920560;29;20035;-66
2022/05/02 09:12:55;;;;;;;4.68;3.58;;;17.00;59.60;;;;;;4934393;29;20503;-66
2022/05/02 09:15:38;;;;;;;9.52;4.10;;;17.10;59.30;;;;;;4932424;29;20054;-66
2022/05/02 09:18:35;;;;;;;6.70;3.20;;;17.10;59.60;;;;;;4915637;29;20123;-66
2022/05/02 09:21:16;;;;;;;9.10;3.60;;;17.20;59.70;;;;;;4929149;29;20035;-65
2022/05/02 09:24:04;;;;;;;5.95;4.00;;;17.30;59.80;;;;;;4933742;29;20207;-65
2022/05/02 09:26:56;;;;;;;7.97;3.75;;;17.50;59.60;;;;;;4928254;29;20039;-65
2022/05/02 09:30:12;;;;;;;6.65;4.30;;;17.50;58.10;;;;;;4930470;29;20065;-65
2022/05/02 09:32:56;;;;;;;;;;;17.50;58.40;;;;;;4928233;29;20051;-65
2022/05/02 09:35:33;;;;;;;4.55;3.33;;;17.50;58.90;;;;;;4933862;29;19918;-65
2022/05/02 09:38:06;;;;;;;6.75;4.15;;;17.50;58.00;;;;;;4944608;29;20431;-65
2022/05/02 09:40:36;;;;;;;9.30;4.18;;;17.50;58.10;;;;;;4936429;29;20036;-65
2022/05/02 09:43:25;;;;;;;7.63;4.00;;;17.60;57.70;;;;;;4915387;29;20145;-65
2022/05/02 09:49:47;;;;;;;5.70;4.53;;;17.70;57.90;;;;;;4920546;29;20051;-65
2022/05/02 09:52:25;;;;;;;13.30;3.97;;;17.80;57.50;;;;;;4904643;29;20127;-67
2022/05/02 09:58:26;;;;;;;10.05;4.25;;;17.80;57.80;;;;;;4926646;29;20031;-66
2022/05/02 10:01:17;;;;;;;9.20;4.22;;;17.90;57.30;;;;;;4933738;29;20069;-65
2022/05/02 10:04:01;;;;;;;7.53;4.40;;;17.90;57.10;;;;;;4933872;29;20031;-66
2022/05/02 10:06:34;;;;;;;30.75;11.68;;;18.00;57.10;;;;;;4914733;29;20638;-66
2022/05/02 10:09:04;;;;;;;9.68;5.75;;;18.00;56.70;;;;;;4928222;29;20051;-66
2022/05/02 10:11:49;;;;;;;9.05;4.55;;;18.10;56.90;;;;;;4933656;29;20517;-66
2022/05/02 10:14:34;;;;;;;6.75;5.22;;;18.10;56.80;;;;;;4928072;29;20059;-66
2022/05/02 10:17:16;;;;;;;6.28;4.00;;;18.20;56.40;;;;;;4931260;28;20035;-66
2022/05/02 10:20:08;;;;;;;6.78;4.72;;;18.20;56.50;;;;;;4936076;29;20032;-66
2022/05/02 10:22:58;;;;;;;5.70;4.03;;;18.20;56.60;;;;;;4921366;29;20027;-66
2022/05/02 10:25:43;;;;;;;6.90;3.20;;;18.40;56.30;;;;;;4917315;29;20043;-65
2022/05/02 10:28:41;;;;;;;8.57;4.50;;;18.40;56.60;;;;;;4918368;29;20086;-65
2022/05/02 10:31:20;;;;;;;7.30;3.92;;;18.50;56.10;;;;;;4930467;29;20028;-65
2022/05/02 10:33:50;;;;;;;8.13;4.20;;;18.70;56.00;;;;;;4937765;29;20662;-66
2022/05/02 10:36:20;;;;;;;10.23;4.60;;;18.70;55.70;;;;;;4937538;29;20055;-65
2022/05/02 10:38:53;;;;;;;10.88;5.03;;;18.70;55.50;;;;;;4938004;29;20550;-65
2022/05/02 10:41:27;;;;;;;7.30;3.92;;;18.80;55.40;;;;;;4937757;29;20036;-65
2022/05/02 10:44:04;;;;;;;8.65;5.35;;;18.90;55.80;;;;;;4936647;29;20043;-66
2022/05/02 10:46:31;;;;;;;6.15;4.18;;;19.00;54.80;;;;;;4929833;29;20043;-65
2022/05/02 10:49:03;;;;;;;9.00;4.60;;;19.10;54.80;;;;;;4935966;29;20039;-65
2022/05/02 10:51:54;;;;;;;7.95;4.13;;;19.10;55.00;;;;;;4940397;29;20035;-65
2022/05/02 10:54:39;;;;;;;9.65;5.10;;;19.00;54.80;;;;;;4919215;29;20111;-64
2022/05/02 10:57:31;;;;;;;7.20;4.43;;;19.00;54.20;;;;;;4920379;29;20059;-65
2022/05/02 11:00:04;;;;;;;8.07;4.80;;;19.00;54.70;;;;;;4934907;29;20081;-65
2022/05/02 11:03:07;;;;;;;12.37;5.83;;;19.10;54.70;;;;;;4918133;29;20028;-65
2022/05/02 11:05:57;;;;;;;10.27;5.72;;;19.10;54.30;;;;;;4923598;29;20032;-65
2022/05/02 11:08:47;;;;;;;7.22;5.20;;;19.10;54.30;;;;;;4919210;29;20040;-65
2022/05/02 11:11:26;;;;;;;7.50;5.00;;;19.20;54.10;;;;;;4937127;29;20118;-65
2022/05/02 11:14:18;;;;;;;6.38;4.63;;;19.20;54.50;;;;;;4930993;29;20043;-66
2022/05/02 11:16:58;;;;;;;9.10;4.72;;;19.30;54.70;;;;;;4936637;29;20027;-66
2022/05/02 11:22:42;;;;;;;15.18;7.13;;;19.40;53.70;;;;;;4936880;29;20110;-67
2022/05/02 11:25:18;;;;;;;5.88;4.28;;;19.50;54.10;;;;;;4936689;29;20055;-65
2022/05/02 11:28:05;;;;;;;6.45;4.43;;;19.50;54.00;;;;;;4935409;29;20062;-66
2022/05/02 11:30:41;;;;;;;9.25;5.20;;;19.50;53.60;;;;;;4936990;29;20028;-67
2022/05/02 11:33:28;;;;;;;5.65;4.10;;;19.50;53.50;;;;;;4919151;29;20475;-67
2022/05/02 11:36:00;;;;;;;7.90;4.75;;;19.50;53.60;;;;;;4937011;29;20032;-66
2022/05/02 11:38:38;;;;;;;12.23;6.30;;;19.50;53.50;;;;;;4935616;29;20032;-66
2022/05/02 11:41:14;;;;;;;9.32;4.38;;;19.60;53.80;;;;;;4936604;29;20028;-67
2022/05/02 11:43:40;;;;;;;5.72;3.92;;;19.70;54.20;;;;;;4936187;29;20035;-67
2022/05/02 11:46:26;;;;;;;7.70;4.25;;;19.80;54.10;;;;;;4936699;29;20477;-67
2022/05/02 11:49:14;;;;;;;8.18;4.40;;;20.00;53.90;;;;;;4914402;29;20373;-68
2022/05/02 11:51:46;;;;;;;5.90;3.78;;;20.10;53.80;;;;;;4917521;29;20115;-68
2022/05/02 11:54:34;;;;;;;6.80;4.22;;;20.20;53.80;;;;;;4917330;29;20111;-68
2022/05/02 11:57:14;;;;;;;7.43;5.13;;;20.40;53.30;;;;;;4912981;29;20063;-68
2022/05/02 12:00:05;;;;;;;5.82;4.10;;;20.50;52.80;;;;;;4937443;29;20046;-68
2022/05/02 12:02:48;;;;;;;6.38;4.40;;;20.60;52.90;;;;;;4942586;29;20098;-68
2022/05/02 12:05:41;;;;;;;6.95;4.45;;;20.60;52.00;;;;;;4939737;29;20103;-68
2022/05/02 12:08:09;;;;;;;16.35;7.65;;;20.60;52.10;;;;;;4936863;29;20178;-68
2022/05/02 12:10:41;;;;;;;10.98;4.78;;;20.60;51.70;;;;;;4919455;29;20106;-67
2022/05/02 12:13:11;;;;;;;7.28;4.40;;;20.60;51.80;;;;;;4928734;29;20491;-68
2022/05/02 12:16:00;;;;;;;6.10;4.20;;;20.60;51.80;;;;;;4937580;29;20054;-68
2022/05/02 12:18:40;;;;;;;9.98;4.65;;;20.80;51.80;;;;;;4939228;29;20051;-67
2022/05/02 12:21:08;;;;;;;17.08;7.43;;;20.90;51.80;;;;;;4943120;29;20106;-68
2022/05/02 12:23:37;;;;;;;11.60;6.05;;;20.90;50.90;;;;;;4942192;29;20039;-68
2022/05/02 12:26:04;;;;;;;11.05;5.95;;;21.00;51.10;;;;;;4939934;29;20032;-68
2022/05/02 12:28:44;;;;;;;7.15;4.80;;;20.90;51.00;;;;;;4939629;29;20031;-69
2022/05/02 12:31:47;;;;;;;6.35;4.68;;;20.90;51.20;;;;;;4941691;29;20030;-67
2022/05/02 12:34:14;;;;;;;8.15;3.90;;;21.00;51.10;;;;;;4934838;29;20046;-69
2022/05/02 12:36:45;;;;;;;5.57;4.47;;;21.10;51.20;;;;;;4938103;29;20371;-67
2022/05/02 12:39:18;;;;;;;9.48;4.93;;;21.30;50.50;;;;;;4935509;29;20031;-68
2022/05/02 12:41:50;;;;;;;5.47;3.75;;;21.30;50.30;;;;;;4933235;29;20087;-68
2022/05/02 12:44:18;;;;;;;5.15;3.58;;;21.40;50.60;;;;;;4918451;29;20031;-68
2022/05/02 12:46:48;;;;;;;6.57;3.60;;;21.60;50.50;;;;;;4933875;29;20032;-68
2022/05/02 12:49:40;;;;;;;9.02;4.72;;;21.70;50.50;;;;;;4927375;29;20172;-68
2022/05/02 12:52:06;;;;;;;7.28;4.47;;;21.80;50.30;;;;;;4924128;29;20032;-68
2022/05/02 12:54:33;;;;;;;5.00;3.50;;;21.80;49.60;;;;;;4931122;29;20040;-67
2022/05/02 13:02:43;;;;;;;6.40;4.20;;;21.90;49.60;;;;;;4931569;29;20027;-68
2022/05/02 13:05:23;;;;;;;6.28;3.85;;;21.80;49.70;;;;;;4933562;29;20028;-69
2022/05/02 13:07:53;;;;;;;8.02;4.07;;;21.90;50.00;;;;;;4917154;29;20115;-69
2022/05/02 13:10:20;;;;;;;8.73;3.80;;;22.00;49.50;;;;;;4918016;29;20056;-68
2022/05/02 13:12:58;;;;;;;5.30;3.40;;;22.00;49.60;;;;;;4932257;29;20380;-68
2022/05/02 13:15:27;;;;;;;5.60;3.47;;;22.00;49.80;;;;;;4916474;29;20040;-67
2022/05/02 13:18:16;;;;;;;5.88;3.92;;;21.80;49.50;;;;;;4934525;29;20027;-67
2022/05/02 13:20:48;;;;;;;5.78;3.72;;;21.80;49.70;;;;;;4934253;29;20123;-68
2022/05/02 13:23:14;;;;;;;7.20;4.00;;;21.80;49.70;;;;;;4932325;29;20047;-67
2022/05/02 13:26:11;;;;;;;7.03;4.35;;;21.90;49.80;;;;;;4934603;29;20055;-68
2022/05/02 13:28:57;;;;;;;8.13;3.33;;;21.90;49.60;;;;;;4932900;29;20040;-68
2022/05/02 13:31:30;;;;;;;5.65;3.22;;;21.90;49.70;;;;;;4928284;29;20079;-68
2022/05/02 13:33:59;;;;;;;7.53;3.45;;;21.90;49.60;;;;;;4929961;29;20039;-68
2022/05/02 13:36:37;;;;;;;9.73;5.38;;;22.00;49.70;;;;;;4932940;29;20511;-68
2022/05/02 13:39:07;;;;;;;7.50;3.85;;;22.10;49.80;;;;;;4933497;29;20110;-68
2022/05/02 13:41:48;;;;;;;8.30;4.45;;;22.10;49.10;;;;;;4934808;29;20365;-68
2022/05/02 13:44:16;;;;;;;4.57;3.55;;;22.00;49.40;;;;;;4933847;29;20035;-68
2022/05/02 13:47:05;;;;;;;4.95;4.00;;;22.00;49.40;;;;;;4934557;29;20036;-67
2022/05/02 13:50:01;;;;;;;6.18;3.88;;;22.00;49.20;;;;;;4935118;29;20079;-68
2022/05/02 13:52:33;;;;;;;5.60;3.67;;;22.00;49.20;;;;;;4929764;29;20451;-68
2022/05/02 13:55:10;;;;;;;4.85;3.30;;;22.00;49.00;;;;;;4933668;29;20122;-67
2022/05/02 13:57:49;;;;;;;6.03;3.30;;;21.90;49.10;;;;;;4933296;29;20057;-67
2022/05/02 14:03:19;;;;;;;8.43;4.43;;;22.10;49.00;;;;;;4933226;29;20431;-68